createdAt,value
2023-02-24T00:00:56.512Z,99716.81
2023-02-24T00:03:23.071Z,99717.66
2023-02-24T00:05:49.583Z,99706.53
2023-02-24T00:11:01.154Z,99691.09
2023-02-24T00:13:29.957Z,99699.09
2023-02-24T00:15:57.402Z,99688.41
2023-02-24T00:18:23.861Z,99690.34
2023-02-24T00:20:51.234Z,99682.81
2023-02-24T00:26:02.448Z,99676.13
2023-02-24T00:28:29.800Z,99672.56
2023-02-24T00:30:57.249Z,99664.25
2023-02-24T00:33:24.665Z,99667.75
2023-02-24T00:35:52.045Z,99662.59
2023-02-24T00:41:13.357Z,99646.75
2023-02-24T00:43:40.780Z,99636.50
2023-02-24T00:46:08.196Z,99640.44
2023-02-24T00:48:35.599Z,99632.88
2023-02-24T00:51:02.990Z,99630.16
2023-02-24T00:56:14.540Z,99630.78
2023-02-24T00:58:41.897Z,99617.72
2023-02-24T01:01:08.379Z,99620.44
2023-02-24T01:03:35.765Z,99616.88
2023-02-24T01:06:03.223Z,99613.00
2023-02-24T01:11:14.810Z,99605.06
2023-02-24T01:13:42.202Z,99602.22
2023-02-24T01:16:08.725Z,99599.50
2023-02-24T01:18:35.217Z,99597.06
2023-02-24T01:21:01.638Z,99598.22
2023-02-24T01:26:23.028Z,99585.31
2023-02-24T01:28:50.465Z,99587.63
2023-02-24T01:31:17.077Z,99579.38
2023-02-24T01:33:44.487Z,99577.78
2023-02-24T01:36:11.970Z,99571.38
2023-02-24T01:41:23.417Z,99563.88
2023-02-24T01:43:50.805Z,99561.88
2023-02-24T01:46:17.294Z,99555.06
2023-02-24T01:48:44.697Z,99556.75
2023-02-24T01:51:11.211Z,99549.16
2023-02-24T01:56:22.812Z,99542.75
2023-02-24T01:58:49.272Z,99535.69
2023-02-24T02:01:15.622Z,99530.13
2023-02-24T02:03:42.104Z,99526.59
2023-02-24T02:06:08.551Z,99520.63
2023-02-24T02:11:30.731Z,99518.94
2023-02-24T02:13:57.219Z,99521.72
2023-02-24T02:16:24.731Z,99514.56
2023-02-24T02:18:52.215Z,99512.97
2023-02-24T02:21:19.793Z,99505.50
2023-02-24T02:26:31.621Z,99503.88
2023-02-24T02:28:58.077Z,99498.81
2023-02-24T02:31:25.984Z,99497.59
2023-02-24T02:33:52.629Z,99508.66
2023-02-24T02:36:20.004Z,99497.88
2023-02-24T02:38:46.456Z,99499.50
2023-02-24T02:41:12.946Z,99496.78
2023-02-24T02:43:40.310Z,99495.22
2023-02-24T02:46:06.872Z,99492.03
2023-02-24T02:48:33.329Z,99488.84
2023-02-24T02:50:59.751Z,99493.53
2023-02-24T02:53:26.201Z,99490.75
2023-02-24T02:55:52.676Z,99488.88
2023-02-24T02:58:19.104Z,99488.44
2023-02-24T03:00:48.328Z,99484.94
2023-02-24T03:03:14.805Z,99478.19
2023-02-24T03:05:41.263Z,99482.47
2023-02-24T03:08:08.635Z,99482.50
2023-02-24T03:10:36.015Z,99476.59
2023-02-24T03:13:03.411Z,99479.34
2023-02-24T03:15:29.859Z,99459.50
2023-02-24T03:17:56.331Z,99452.38
2023-02-24T03:20:23.708Z,99455.91
2023-02-24T03:22:50.242Z,99462.66
2023-02-24T03:25:16.716Z,99461.00
2023-02-24T03:27:44.121Z,99461.06
2023-02-24T03:30:10.580Z,99462.25
2023-02-24T03:32:37.130Z,99450.03
2023-02-24T03:35:06.304Z,99453.53
2023-02-24T03:37:33.688Z,99451.59
2023-02-24T03:40:01.078Z,99445.59
2023-02-24T03:42:28.462Z,99446.41
2023-02-24T03:44:55.838Z,99437.66
2023-02-24T03:47:23.190Z,99440.06
2023-02-24T03:49:50.585Z,99440.84
2023-02-24T03:52:17.036Z,99436.13
2023-02-24T03:54:43.522Z,99435.28
2023-02-24T03:59:54.715Z,99421.41
2023-02-24T04:02:21.177Z,99423.78
2023-02-24T04:04:48.732Z,99416.16
2023-02-24T04:07:16.191Z,99415.38
2023-02-24T04:09:43.586Z,99409.75
2023-02-24T04:15:05.059Z,99402.38
2023-02-24T04:17:32.434Z,99390.44
2023-02-24T04:19:58.914Z,99385.66
2023-02-24T04:22:26.309Z,99392.03
2023-02-24T04:24:53.731Z,99387.25
2023-02-24T04:30:14.929Z,99377.31
2023-02-24T04:32:41.419Z,99375.97
2023-02-24T04:35:09.796Z,99373.13
2023-02-24T04:37:37.215Z,99375.63
2023-02-24T04:40:03.718Z,99375.28
2023-02-24T04:45:24.307Z,99365.78
2023-02-24T04:47:51.774Z,99368.00
2023-02-24T04:50:18.222Z,99360.72
2023-02-24T04:52:45.592Z,99369.13
2023-02-24T04:55:14.754Z,99352.94
2023-02-24T05:00:26.323Z,99361.78
2023-02-24T05:02:52.744Z,99358.75
2023-02-24T05:05:20.181Z,99352.47
2023-02-24T05:07:46.631Z,99350.91
2023-02-24T05:10:13.098Z,99339.00
2023-02-24T05:15:33.757Z,99343.41
2023-02-24T05:18:00.229Z,99330.31
2023-02-24T05:20:26.701Z,99338.59
2023-02-24T05:22:53.186Z,99338.66
2023-02-24T05:25:19.837Z,99339.88
2023-02-24T05:30:40.245Z,99322.69
2023-02-24T05:33:06.731Z,99330.94
2023-02-24T05:35:33.256Z,99327.75
2023-02-24T05:38:00.750Z,99330.09
2023-02-24T05:40:27.392Z,99329.25
2023-02-24T05:45:39.826Z,99330.03
2023-02-24T05:48:06.274Z,99342.72
2023-02-24T05:50:32.754Z,99338.63
2023-02-24T05:53:00.168Z,99331.44
2023-02-24T05:55:26.807Z,99334.91
2023-02-24T06:00:37.582Z,99334.22
2023-02-24T06:03:04.105Z,99329.78
2023-02-24T06:05:30.592Z,99326.66
2023-02-24T06:07:57.087Z,99330.22
2023-02-24T06:10:24.522Z,99329.88
2023-02-24T06:15:35.066Z,99321.88
2023-02-24T06:18:01.572Z,99324.31
2023-02-24T06:20:28.363Z,99321.94
2023-02-24T06:22:54.852Z,99317.91
2023-02-24T06:25:21.316Z,99319.44
2023-02-24T06:30:42.755Z,99315.88
2023-02-24T06:33:09.536Z,99309.97
2023-02-24T06:35:37.199Z,99312.34
2023-02-24T06:38:04.937Z,99305.19
2023-02-24T06:40:32.631Z,99304.84
2023-02-24T06:45:53.842Z,99306.78
2023-02-24T06:48:21.382Z,99306.78
2023-02-24T06:50:47.853Z,99302.84
2023-02-24T06:53:15.246Z,99300.06
2023-02-24T06:55:42.683Z,99302.06
2023-02-24T07:00:54.065Z,99299.28
2023-02-24T07:03:21.112Z,99296.16
2023-02-24T07:05:47.611Z,99298.16
2023-02-24T07:08:15.052Z,99295.81
2023-02-24T07:10:41.517Z,99292.31
2023-02-24T07:13:08.038Z,99290.25
2023-02-24T07:15:35.425Z,99286.75
2023-02-24T07:18:01.916Z,99281.56
2023-02-24T07:20:28.386Z,99283.03
2023-02-24T07:22:54.875Z,99283.81
2023-02-24T07:25:21.317Z,99277.06
2023-02-24T07:27:47.776Z,99268.38
2023-02-24T07:30:14.245Z,99278.78
2023-02-24T07:32:41.746Z,99273.16
2023-02-24T07:35:08.233Z,99272.78
2023-02-24T07:37:35.650Z,99279.16
2023-02-24T07:40:03.060Z,99268.72
2023-02-24T07:42:30.504Z,99275.22
2023-02-24T07:44:57.069Z,99262.56
2023-02-24T07:47:23.568Z,99268.53
2023-02-24T07:49:50.034Z,99267.72
2023-02-24T07:52:16.527Z,99266.19
2023-02-24T07:54:43.929Z,99255.84
2023-02-24T07:57:11.391Z,99256.63
2023-02-24T07:59:38.803Z,99252.97
2023-02-24T08:02:06.321Z,99255.84
2023-02-24T08:04:32.838Z,99255.50
2023-02-24T08:07:00.184Z,99252.28
2023-02-24T08:09:27.597Z,99248.66
2023-02-24T08:11:54.073Z,99248.56
2023-02-24T08:14:20.629Z,99240.16
2023-02-24T08:16:48.248Z,99243.78
2023-02-24T08:19:14.740Z,99239.34
2023-02-24T08:21:42.123Z,99239.34
2023-02-24T08:24:08.651Z,99236.66
2023-02-24T08:26:35.166Z,99228.31
2023-02-24T08:29:02.673Z,99232.31
2023-02-24T08:34:13.106Z,99220.78
2023-02-24T08:36:39.612Z,99219.63
2023-02-24T08:39:06.098Z,99224.75
2023-02-24T08:41:32.585Z,99213.91
2023-02-24T08:43:59.062Z,99216.75
2023-02-24T08:49:20.434Z,99213.97
2023-02-24T08:51:46.950Z,99198.88
2023-02-24T08:54:13.408Z,99205.72
2023-02-24T08:56:39.921Z,99205.31
2023-02-24T08:59:06.525Z,99195.75
2023-02-24T09:01:33.028Z,99198.63
2023-02-24T09:04:00.420Z,99193.41
2023-02-24T09:06:26.882Z,99196.19
2023-02-24T09:08:53.372Z,99191.41
2023-02-24T09:11:21.058Z,99188.19
2023-02-24T09:13:47.733Z,99180.63
2023-02-24T09:18:59.042Z,99176.75
2023-02-24T09:21:26.493Z,99175.50
2023-02-24T09:23:53.002Z,99169.84
2023-02-24T09:26:19.479Z,99171.97
2023-02-24T09:28:46.087Z,99174.38
2023-02-24T09:33:56.686Z,99172.72
2023-02-24T09:36:24.078Z,99156.84
2023-02-24T09:38:50.554Z,99160.41
2023-02-24T09:41:19.120Z,99159.13
2023-02-24T09:43:46.684Z,99160.41
2023-02-24T09:49:08.058Z,99148.34
2023-02-24T09:51:34.549Z,99155.19
2023-02-24T09:54:02.033Z,99147.28
2023-02-24T09:56:28.586Z,99140.59
2023-02-24T09:58:56.036Z,99146.34
2023-02-24T10:04:21.148Z,99143.81
2023-02-24T10:06:48.202Z,99139.47
2023-02-24T10:09:14.685Z,99140.44
2023-02-24T10:11:43.019Z,99134.88
2023-02-24T10:14:10.528Z,99144.16
2023-02-24T10:19:21.101Z,99137.50
2023-02-24T10:21:48.608Z,99136.34
2023-02-24T10:24:16.081Z,99125.59
2023-02-24T10:26:48.457Z,99132.88
2023-02-24T10:29:26.547Z,99128.53
2023-02-24T10:34:38.146Z,99120.97
2023-02-24T10:37:04.620Z,99119.56
2023-02-24T10:39:32.049Z,99121.13
2023-02-24T10:41:59.146Z,99111.59
2023-02-24T10:44:26.607Z,99107.84
2023-02-24T10:49:38.095Z,99104.25
2023-02-24T10:52:05.530Z,99099.63
2023-02-24T10:54:32.035Z,99090.88
2023-02-24T10:56:59.464Z,99098.59
2023-02-24T10:59:26.871Z,99090.53
2023-02-24T11:01:53.403Z,99081.34
2023-02-24T11:04:20.048Z,99090.19
2023-02-24T11:06:46.571Z,99082.94
2023-02-24T11:09:13.064Z,99079.44
2023-02-24T11:11:40.433Z,99070.50
2023-02-24T11:14:06.891Z,99069.47
2023-02-24T11:16:35.350Z,99064.50
2023-02-24T11:19:02.727Z,99062.28
2023-02-24T11:21:30.026Z,99055.97
2023-02-24T11:23:56.460Z,99054.03
2023-02-24T11:26:23.772Z,99050.84
2023-02-24T11:28:50.204Z,99043.81
2023-02-24T11:31:17.650Z,99045.78
2023-02-24T11:33:44.172Z,99032.59
2023-02-24T11:36:11.924Z,99031.09
2023-02-24T11:38:39.281Z,99034.88
2023-02-24T11:41:05.761Z,99026.78
2023-02-24T11:43:32.174Z,99026.22
2023-02-24T11:45:59.526Z,99021.72
2023-02-24T11:48:25.985Z,99008.44
2023-02-24T11:50:53.274Z,98998.41
2023-02-24T11:53:20.637Z,99004.31
2023-02-24T11:55:48.027Z,99007.72
2023-02-24T11:58:15.378Z,98998.81
2023-02-24T12:00:42.758Z,99001.47
2023-02-24T12:03:10.062Z,99000.69
2023-02-24T12:05:37.440Z,98991.88
2023-02-24T12:08:03.952Z,98991.56
2023-02-24T12:10:32.287Z,98991.88
2023-02-24T12:12:58.795Z,98991.03
2023-02-24T12:15:28.389Z,98984.72
2023-02-24T12:17:56.800Z,98978.66
2023-02-24T12:23:07.004Z,98974.50
2023-02-24T12:25:33.427Z,98972.94
2023-02-24T12:27:59.947Z,98968.59
2023-02-24T12:30:26.381Z,98964.19
2023-02-24T12:32:54.803Z,98960.22
2023-02-24T12:38:10.101Z,98952.06
2023-02-24T12:40:36.566Z,98947.97
2023-02-24T12:43:04.839Z,98945.19
2023-02-24T12:45:33.166Z,98939.63
2023-02-24T12:47:59.599Z,98943.97
2023-02-24T12:53:22.534Z,98938.09
2023-02-24T12:55:48.998Z,98930.53
2023-02-24T12:58:15.444Z,98926.97
2023-02-24T13:00:42.211Z,98930.53
2023-02-24T13:03:08.745Z,98921.00
2023-02-24T13:08:23.522Z,98915.44
2023-02-24T13:10:53.458Z,98913.00
2023-02-24T13:13:19.951Z,98910.66
2023-02-24T13:15:46.378Z,98902.44
2023-02-24T13:18:12.830Z,98899.22
2023-02-24T13:23:26.155Z,98892.44
2023-02-24T13:25:52.610Z,98893.59
2023-02-24T13:28:19.009Z,98890.03
2023-02-24T13:30:45.820Z,98885.25
2023-02-24T13:33:15.037Z,98884.13
2023-02-24T13:38:41.010Z,98872.25
2023-02-24T13:41:07.443Z,98873.81
2023-02-24T13:43:33.824Z,98873.00
2023-02-24T13:46:01.166Z,98863.16
2023-02-24T13:48:27.641Z,98872.25
2023-02-24T13:53:47.491Z,98856.63
2023-02-24T13:56:13.901Z,98851.53
2023-02-24T13:58:40.281Z,98844.28
2023-02-24T14:01:06.872Z,98846.66
2023-02-24T14:03:33.298Z,98841.09
2023-02-24T14:08:53.218Z,98836.78
2023-02-24T14:11:19.849Z,98844.66
2023-02-24T14:13:47.222Z,98849.41
2023-02-24T14:16:14.262Z,98843.53
2023-02-24T14:18:40.763Z,98840.31
2023-02-24T14:23:53.900Z,98834.34
2023-02-24T14:26:20.539Z,98830.31
2023-02-24T14:28:47.112Z,98813.66
2023-02-24T14:31:13.650Z,98815.25
2023-02-24T14:33:40.230Z,98809.63
2023-02-24T14:38:50.986Z,98816.53
2023-02-24T14:41:20.169Z,98808.78
2023-02-24T14:43:46.672Z,98804.63
2023-02-24T14:46:13.155Z,98810.97
2023-02-24T14:48:39.648Z,98807.84
2023-02-24T14:54:02.156Z,98794.84
2023-02-24T14:56:30.497Z,98781.56
2023-02-24T14:58:58.852Z,98785.91
2023-02-24T15:01:25.517Z,98798.63
2023-02-24T15:03:52.806Z,98790.66
2023-02-24T15:09:13.693Z,98792.56
2023-02-24T15:11:40.130Z,98789.66
2023-02-24T15:14:08.456Z,98783.91
2023-02-24T15:16:34.870Z,98779.84
2023-02-24T15:19:01.804Z,98782.28
2023-02-24T15:21:28.476Z,98770.63
2023-02-24T15:23:55.003Z,98768.69
2023-02-24T15:26:24.170Z,98763.56
2023-02-24T15:28:50.612Z,98768.69
2023-02-24T15:31:19.038Z,98759.47
2023-02-24T15:33:45.578Z,98760.25
2023-02-24T15:36:12.055Z,98754.03
2023-02-24T15:38:38.472Z,98756.81
2023-02-24T15:41:04.909Z,98755.31
2023-02-24T15:43:32.134Z,98762.97
2023-02-24T15:46:01.370Z,98762.34
2023-02-24T15:48:31.325Z,98755.84
2023-02-24T15:50:57.871Z,98757.84
2023-02-24T15:53:25.203Z,98760.69
2023-02-24T15:55:53.515Z,98758.16
2023-02-24T15:58:22.688Z,98767.13
2023-02-24T16:00:51.929Z,98768.41
2023-02-24T16:03:20.214Z,98759.47
2023-02-24T16:05:49.489Z,98767.19
2023-02-24T16:08:16.763Z,98758.00
2023-02-24T16:10:43.182Z,98759.75
2023-02-24T16:13:09.611Z,98765.63
2023-02-24T16:15:36.025Z,98768.41
2023-02-24T16:18:02.415Z,98772.97
2023-02-24T16:20:29.668Z,98767.63
2023-02-24T16:22:56.111Z,98789.00
2023-02-24T16:25:22.503Z,98780.94
2023-02-24T16:27:49.769Z,98788.72
2023-02-24T16:30:16.201Z,98778.72
2023-02-24T16:32:42.670Z,98781.31
2023-02-24T16:35:09.909Z,98779.50
2023-02-24T16:37:36.297Z,98779.66
2023-02-24T16:42:47.582Z,98775.25
2023-02-24T16:45:13.972Z,98771.03
2023-02-24T16:47:40.327Z,98771.13
2023-02-24T16:50:07.587Z,98767.06
2023-02-24T16:52:34.049Z,98774.84
2023-02-24T16:57:57.814Z,98760.91
2023-02-24T17:00:24.597Z,98764.97
2023-02-24T17:02:50.984Z,98767.44
2023-02-24T17:05:18.178Z,98761.78
2023-02-24T17:07:44.524Z,98760.69
2023-02-24T17:12:55.183Z,98769.56
2023-02-24T17:15:21.557Z,98764.56
2023-02-24T17:17:47.869Z,98767.97
2023-02-24T17:20:14.251Z,98772.00
2023-02-24T17:22:40.588Z,98757.19
2023-02-24T17:27:50.915Z,98755.38
2023-02-24T17:30:18.164Z,98741.50
2023-02-24T17:32:44.648Z,98754.16
2023-02-24T17:35:11.922Z,98753.13
2023-02-24T17:37:38.400Z,98743.50
2023-02-24T17:42:48.536Z,98745.16
2023-02-24T17:45:16.039Z,98745.94
2023-02-24T17:47:42.410Z,98740.91
2023-02-24T17:50:08.772Z,98733.25
2023-02-24T17:52:35.378Z,98726.59
2023-02-24T17:57:45.799Z,98724.50
2023-02-24T18:00:12.156Z,98718.19
2023-02-24T18:02:38.724Z,98713.41
2023-02-24T18:05:05.185Z,98721.28
2023-02-24T18:07:31.600Z,98719.75
2023-02-24T18:12:42.264Z,98711.88
2023-02-24T18:15:09.479Z,98709.84
2023-02-24T18:17:36.033Z,98699.53
2023-02-24T18:20:03.306Z,98711.34
2023-02-24T18:22:29.688Z,98703.88
2023-02-24T18:27:39.847Z,98709.84
2023-02-24T18:30:06.824Z,98700.75
2023-02-24T18:32:33.416Z,98702.31
2023-02-24T18:34:59.929Z,98692.44
2023-02-24T18:37:26.335Z,98693.22
2023-02-24T18:42:37.614Z,98688.44
2023-02-24T18:45:04.005Z,98667.03
2023-02-24T18:47:30.416Z,98667.38
2023-02-24T18:49:56.840Z,98668.56
2023-02-24T18:52:23.219Z,98671.34
2023-02-24T18:54:49.635Z,98671.00
2023-02-24T18:57:16.031Z,98666.22
2023-02-24T18:59:42.415Z,98663.03
2023-02-24T19:02:09.653Z,98655.59
2023-02-24T19:04:36.034Z,98653.16
2023-02-24T19:07:03.256Z,98649.75
2023-02-24T19:09:29.575Z,98649.00
2023-02-24T19:11:55.911Z,98640.56
2023-02-24T19:14:24.318Z,98636.81
2023-02-24T19:16:50.735Z,98634.38
2023-02-24T19:19:17.125Z,98624.72
2023-02-24T19:21:43.585Z,98629.38
2023-02-24T19:24:12.728Z,98620.63
2023-02-24T19:26:43.946Z,98625.69
2023-02-24T19:29:10.352Z,98621.16
2023-02-24T19:31:39.597Z,98615.28
2023-02-24T19:34:06.905Z,98605.59
2023-02-24T19:36:34.152Z,98604.81
2023-02-24T19:39:00.569Z,98600.84
2023-02-24T19:41:27.822Z,98603.94
2023-02-24T19:43:56.152Z,98598.75
2023-02-24T19:46:23.984Z,98597.09
2023-02-24T19:48:51.459Z,98585.19
2023-02-24T19:51:18.720Z,98596.16
2023-02-24T19:53:45.146Z,98595.72
2023-02-24T19:56:12.367Z,98593.75
2023-02-24T19:58:38.748Z,98594.53
2023-02-24T20:01:08.161Z,98592.72
2023-02-24T20:03:34.595Z,98597.38
2023-02-24T20:06:00.991Z,98593.84
2023-02-24T20:08:27.372Z,98594.59
2023-02-24T20:10:53.777Z,98594.59
2023-02-24T20:16:06.991Z,98580.72
2023-02-24T20:18:34.362Z,98591.84
2023-02-24T20:21:00.738Z,98577.94
2023-02-24T20:23:27.975Z,98575.59
2023-02-24T20:25:54.377Z,98572.81
2023-02-24T20:31:04.953Z,98563.72
2023-02-24T20:33:34.130Z,98579.94
2023-02-24T20:36:00.556Z,98569.59
2023-02-24T20:38:27.007Z,98573.94
2023-02-24T20:40:55.272Z,98571.16
2023-02-24T20:46:07.535Z,98561.91
2023-02-24T20:48:34.274Z,98557.16
2023-02-24T20:51:00.726Z,98555.91
2023-02-24T20:53:27.129Z,98555.47
2023-02-24T20:55:54.418Z,98549.91
2023-02-24T21:01:05.114Z,98539.13
2023-02-24T21:03:34.311Z,98525.44
2023-02-24T21:06:09.554Z,98530.75
2023-02-24T21:08:36.753Z,98530.75
2023-02-24T21:11:05.964Z,98525.31
2023-02-24T21:16:19.226Z,98527.81
2023-02-24T21:18:45.624Z,98522.03
2023-02-24T21:21:12.831Z,98514.94
2023-02-24T21:23:41.115Z,98507.03
2023-02-24T21:26:07.503Z,98507.97
2023-02-24T21:31:23.854Z,98501.59
2023-02-24T21:33:53.260Z,98498.06
2023-02-24T21:36:19.688Z,98500.06
2023-02-24T21:38:46.202Z,98483.84
2023-02-24T21:41:15.382Z,98488.63
2023-02-24T21:46:29.690Z,98468.84
2023-02-24T21:48:56.074Z,98472.41
2023-02-24T21:51:23.333Z,98468.84
2023-02-24T21:53:49.746Z,98466.06
2023-02-24T21:56:18.097Z,98454.19
2023-02-24T22:01:28.382Z,98454.78
2023-02-24T22:03:54.739Z,98442.72
2023-02-24T22:06:21.444Z,98438.28
2023-02-24T22:08:47.986Z,98434.56
2023-02-24T22:11:14.562Z,98428.88
2023-02-24T22:16:25.568Z,98429.00
2023-02-24T22:18:54.128Z,98434.38
2023-02-24T22:21:22.436Z,98436.84
2023-02-24T22:23:48.813Z,98417.38
2023-02-24T22:26:15.179Z,98415.38
2023-02-24T22:28:41.602Z,98409.06
2023-02-24T22:31:08.170Z,98405.50
2023-02-24T22:33:35.493Z,98408.28
2023-02-24T22:36:01.921Z,98401.94
2023-02-24T22:38:28.382Z,98397.50
2023-02-24T22:40:56.664Z,98399.47
2023-02-24T22:43:23.033Z,98391.41
2023-02-24T22:45:49.404Z,98389.25
2023-02-24T22:48:15.909Z,98386.69
2023-02-24T22:50:42.284Z,98383.06
2023-02-24T22:53:09.531Z,98375.75
2023-02-24T22:55:35.981Z,98375.75
2023-02-24T22:58:02.318Z,98376.53
2023-02-24T23:00:28.776Z,98383.19
2023-02-24T23:02:55.171Z,98374.09
2023-02-24T23:05:21.536Z,98367.59
2023-02-24T23:07:47.861Z,98361.44
2023-02-24T23:10:14.242Z,98360.38
2023-02-24T23:12:40.583Z,98346.91
2023-02-24T23:15:06.952Z,98350.47
2023-02-24T23:17:33.408Z,98352.03
2023-02-24T23:19:59.817Z,98352.47
2023-02-24T23:22:26.147Z,98352.78
2023-02-24T23:24:52.490Z,98354.81
2023-02-24T23:27:18.841Z,98356.81
2023-02-24T23:29:45.189Z,98348.13
2023-02-24T23:34:55.618Z,98334.59
2023-02-24T23:37:21.951Z,98327.19
2023-02-24T23:39:48.285Z,98330.41
2023-02-24T23:42:15.538Z,98323.63
2023-02-24T23:44:41.993Z,98311.41
2023-02-24T23:50:02.566Z,98286.41
2023-02-24T23:52:30.024Z,98285.31
2023-02-24T23:54:57.335Z,98277.88
2023-02-24T23:57:23.815Z,98279.44
2023-02-24T23:59:50.241Z,98274.78
